• Join FlightAware (Why Join?)
  • Login
  • US Flag 
11:57PM EDT


 

Airport Tracker/Info


-or-


 

Live Flight TrackerFlight Track Log ✈ BJS542 ✈ 27-Apr-2013 ✈ KCAE - KPSM

Flight Track Log - Related Links

Times and Time Zones

All times are in EDT time to prevent confusion due to time zone crossing. See the BJS542 flight status page for this flight to view local times or setup timezone preferences in your user account.

Time Position Orientation Groundspeed Altitude Reporting Facility
EDT Latitude Longitude Course Direction KTS MPH feet Rate Location/Type
08:06PM 34.0528 -80.9400 50° Northeast 256 295 10,500  Level Jacksonville Center
08:07PM 34.1183 -80.8558 47° Northeast 298 343 14,100 3,720 Climbing Jacksonville Center
08:08PM 34.1878 -80.7614 48° Northeast 340 391 18,000 3,600 Climbing Jacksonville Center
08:09PM 34.2633 -80.6664 46° Northeast 371 427 21,300 3,180 Climbing Jacksonville Center
08:10PM 34.4080 -80.4529 50° Northeast  Level FlightAware Approximate
08:10PM 34.3406 -80.5614 48° Northeast 399 459 24,400  Level Jacksonville Center
08:11PM 34.4219 -80.4483 49° Northeast 416 479 27,400 2,460 Climbing Jacksonville Center
08:14PM 34.6294 -80.2033 44° Northeast 449 517 32,900 2,160 Climbing Washington Center
08:15PM 34.7253 -80.0975 42° Northeast 458 527 34,900 1,800 Climbing Washington Center
08:16PM 34.8256 -79.9867 42° Northeast 473 544 36,600 1,020 Climbing Washington Center
08:17PM 34.9236 -79.8731 44° Northeast 478 550 37,000 300 Climbing Washington Center
08:18PM 35.0233 -79.7642 42° Northeast 478 550 37,300 1,260 Climbing Washington Center
08:19PM 35.1189 -79.6547 43° Northeast 478 550 39,500 2,220 Climbing Washington Center
08:20PM 35.2100 -79.5500 43° Northeast 463 533 41,700 1,500 Climbing Washington Center
08:21PM 35.2989 -79.4475 43° Northeast 444 511 42,600 720 Climbing Washington Center
08:22PM 35.3875 -79.3525 41° Northeast 449 517 43,200 600 Climbing Washington Center
08:23PM 35.4697 -79.2569 43° Northeast 455 524 43,800 780 Climbing Washington Center
08:24PM 35.5942 -79.1450 36° Northeast 463 533 44,800 540 Climbing Washington Center
08:25PM 35.6969 -79.0525 36° Northeast 453 521 45,000 60 Climbing Washington Center
08:26PM 35.8019 -78.9572 36° Northeast 458 527 45,000  Level Washington Center
08:27PM 35.9050 -78.8589 38° Northeast 464 534 45,000  Level Washington Center
08:28PM 36.0097 -78.7631 37° Northeast 469 540 45,000  Level Washington Center
08:29PM 36.1144 -78.6672 36° Northeast 469 540 45,000  Level Washington Center
08:30PM 36.2214 -78.5708 36° Northeast 469 540 45,000  Level Washington Center
08:31PM 36.3258 -78.4717 37° Northeast 469 540 45,000  Level Washington Center
08:32PM 36.4306 -78.3750 37° Northeast 469 540 45,000  Level Washington Center
08:33PM 36.5369 -78.2753 37° Northeast 469 540 45,000  Level Washington Center
08:34PM 36.6392 -78.1806 37° Northeast 469 540 45,000  Level Washington Center
08:35PM 36.7417 -78.0775 39° Northeast 469 540 45,000  Level Washington Center
08:36PM 36.8458 -77.9797 37° Northeast 469 540 45,000  Level Washington Center
08:37PM 36.9478 -77.8814 38° Northeast 469 540 45,000  Level Washington Center
08:38PM 37.0519 -77.7831 37° Northeast 469 540 45,000  Level Washington Center
08:39PM 37.1539 -77.6869 37° Northeast 469 540 45,000  Level Washington Center
08:40PM 37.2578 -77.5881 37° Northeast 469 540 45,000  Level Washington Center
08:41PM 37.3594 -77.4889 38° Northeast 469 540 45,000  Level Washington Center
08:42PM 37.4631 -77.3919 37° Northeast 469 540 45,000  Level Washington Center
08:43PM 37.5669 -77.2897 38° Northeast 469 540 45,000  Level Washington Center
08:44PM 37.6683 -77.1894 38° Northeast 469 540 45,000  Level Washington Center
08:45PM 37.7717 -77.0892 37° Northeast 469 540 45,000  Level Washington Center
08:46PM 37.8731 -76.9886 38° Northeast 469 540 45,000  Level Washington Center
08:47PM 37.9744 -76.8878 38° Northeast 469 540 45,000  Level Washington Center
08:48PM 38.0756 -76.7867 38° Northeast 464 534 45,000  Level Washington Center
08:49PM 38.1744 -76.6878 38° Northeast 464 534 45,000  Level Washington Center
08:50PM 38.2797 -76.5836 38° Northeast 464 534 45,000  Level Washington Center
08:51PM 38.3678 -76.4972 38° Northeast 462 532 45,000  Level Washington Center
08:52PM 38.4686 -76.3925 39° Northeast 462 532 45,000  Level Washington Center
08:53PM 38.5714 -76.2928 37° Northeast 462 532 45,000  Level Washington Center
08:54PM 38.6722 -76.1900 38° Northeast 462 532 45,000  Level Washington Center
08:55PM 38.7789 -76.0817 38° Northeast 476 548 45,000  Level Washington Center
08:56PM 38.8856 -75.9811 36° Northeast 476 548 45,000  Level Washington Center
08:57PM 38.9858 -75.8747 39° Northeast 470 541 45,000  Level Washington Center
08:58PM 39.0861 -75.7708 39° Northeast 465 535 45,000  Level Washington Center
08:59PM 39.1906 -75.6639 38° Northeast 465 535 45,000  Level Washington Center
09:00PM 39.2925 -75.5594 38° Northeast 465 535 45,000  Level Washington Center
09:01PM 39.3906 -75.4572 39° Northeast 465 535 45,000  Level Washington Center
09:02PM 39.4903 -75.3522 39° Northeast 465 535 45,000  Level Washington Center
09:03PM 39.5900 -75.2494 38° Northeast 465 535 45,000  Level Washington Center
09:04PM 39.6981 -75.1331 40° Northeast 465 535 45,000  Level Washington Center
09:05PM 39.8081 -75.0133 40° Northeast 469 540 45,000  Level New York Center
09:06PM 39.9053 -74.9164 37° Northeast 463 533 45,000  Level New York Center
09:07PM 40.0036 -74.7842 46° Northeast 453 521 45,000  Level New York Center
09:08PM 40.0869 -74.6589 49° Northeast 453 521 45,000  Level New York Center
09:09PM 40.1636 -74.5436 49° Northeast 459 528 45,000  Level New York Center
09:10PM 40.2558 -74.3989 50° Northeast 472 543 45,000  Level New York Center
09:12PM 40.3881 -74.1947 50° Northeast 470 541 45,000  Level Boston Center
09:13PM 40.4714 -74.0631 50° Northeast 470 541 45,000  Level Boston Center
09:14PM 40.5586 -73.9397 47° Northeast 464 534 45,000  Level Boston Center
09:15PM 40.6436 -73.8075 50° Northeast 464 534 45,000  Level Boston Center
09:16PM 40.7286 -73.6753 50° Northeast 469 540 45,000  Level Boston Center
09:17PM 40.8111 -73.5342 52° Northeast 479 551 45,000  Level Boston Center
09:18PM 40.8958 -73.3956 51° Northeast 479 551 45,000  Level Boston Center
09:19PM 40.9739 -73.2842 47° Northeast 477 549 45,000  Level Boston Center
09:20PM 41.0581 -73.1475 51° Northeast 477 549 45,000  Level Boston Center
09:21PM 41.1403 -73.0022 53° Northeast 471 542 45,000  Level Boston Center
09:22PM 41.2033 -72.8428 62° Northeast 476 548 45,000  Level Boston Center
09:23PM 41.2789 -72.6667 60° Northeast 492 566 45,000 -240 Level Boston Center
09:24PM 41.3417 -72.5092 62° Northeast 492 566 44,600 -900 Descending Boston Center
09:25PM 41.4125 -72.3653 57° Northeast 485 558 43,300 -1,320 Descending Boston Center
09:26PM 41.4875 -72.2572 47° Northeast 474 545 42,000 -1,500 Descending Boston Center
09:27PM 41.5642 -72.1322 51° Northeast 449 517 40,300 -2,100 Descending Boston Center
09:28PM 41.6325 -71.9931 57° Northeast 438 504 37,900 -2,580 Descending Boston Center
09:29PM 41.6964 -71.8508 59° Northeast 438 504 35,200 -2,700 Descending Boston Center
09:30PM 41.7581 -71.7025 61° Northeast 438 504 32,600 -2,580 Descending Boston Center
09:31PM 41.8322 -71.5819 50° Northeast 438 504 30,100 -2,700 Descending Boston Center
09:32PM 41.9378 -71.4717 38° Northeast 428 493 27,200 -2,760 Descending Boston Center
09:33PM 42.0306 -71.3697 39° Northeast 423 487 24,600 -2,640 Descending Boston Center
09:34PM 42.1153 -71.2758 39° Northeast 411 473 22,000 -2,700 Descending Boston Center
09:35PM 42.1994 -71.1789 40° Northeast 400 460 19,300 -2,220 Descending Boston Center
09:36PM 42.2653 -71.0906 45° Northeast 375 432 17,600 -2,100 Descending Boston Center
09:37PM 42.3536 -70.9961 38° Northeast 364 419 15,200 -1,260 Descending Boston Center
09:38PM 42.4233 -70.9072 43° Northeast 371 427 15,100 -360 Descending Boston Center
09:39PM 42.5000 -70.8000 46° Northeast 372 428 14,600 -900 Descending KA90
09:40PM 42.5881 -70.7594 19° North 335 386 13,300 -1,680 Descending Boston Center
09:41PM 42.6739 -70.7767 352° North 298 343 11,200 -1,980 Descending Boston Center
09:42PM 42.7447 -70.7833 356° North 291 335 9,400 -2,040 Descending Boston Center
09:43PM 42.8219 -70.7983 352° North 265 305 7,200 -2,100 Descending Boston Center
09:44PM 42.8828 -70.8108 351° North 246 283 5,200 -2,040 Descending Boston Center
09:45PM 42.9564 -70.8572 335° Northwest 251 289 3,200 -1,980 Descending Boston Center
09:45PM 42.9833 -70.8667 346° North 267 307 2,700 -1,200 Descending KA90
09:46PM 43.0153 -70.8953 327° Northwest 257 296 2,000 -540 Descending Boston Center
09:47PM 43.0758 -70.9222 342° North 230 265 1,800 -360 Descending Boston Center
09:47PM 43.1000 -70.9000 34° Northeast 188 216 1,500 -660 Descending KA90
09:48PM 43.1167 -70.8667 56° Northeast 166 191 1,100 3,720 Descending KA90
09:50PM 43.0806 -70.8114 132° Southeast 75 86 11,000 3,360 Climbing Boston Center
09:51PM 43.0700 -70.7831 117° Southeast 75 86 11,000  Level Boston Center
09:52PM 43.0589 -70.7550 118° Southeast 75 86 11,000  Level Boston Center
09:53PM 43.0481 -70.7269 118° Southeast 75 86 11,000  Level Boston Center
09:55PM 43.0667 -70.8167 295° West  Level FlightAware Approximate
10:02PM 43.0779 -70.8233 295° West  Level Estimated